Time;durP1;ratioP1;P1;durP2;ratioP2;P2;SDS_P1;SDS_P2;PMS_P1;PMS_P2;Temp;Humidity;BMP_temperature;BMP_pressure;BME280_temperature;BME280_humidity;BME280_pressure;Samples;Min_cycle;Max_cycle;Signal;HPM_P1;HPM_P2
2024/01/20 06:01:56;;;;;;;52.83;21.57;;;;;;;;;;5721569;23;20535;-73
2024/01/20 06:04:22;;;;;;;58.33;23.27;;;;;;;;;;4976019;28;20452;-71
2024/01/20 06:06:49;;;;;;;57.67;24.17;;;;;;;;;;4976719;28;20894;-73
2024/01/20 06:09:15;;;;;;;64.63;24.30;;;;;;;;;;4976450;28;20499;-73
2024/01/20 06:11:41;;;;;;;68.20;24.60;;;;;;;;;;4976890;28;20431;-71
2024/01/20 06:14:07;;;;;;;64.00;23.80;;;;;;;;;;4976783;28;20899;-72
2024/01/20 06:16:36;;;;;;;69.43;26.10;;;;;;;;;;4976406;28;20506;-73
2024/01/20 06:19:02;;;;;;;66.87;24.67;;;;;;;;;;4976851;28;20416;-72
2024/01/20 06:21:28;;;;;;;60.33;24.93;;;;;;;;;;4975119;28;20854;-73
2024/01/20 06:23:54;;;;;;;64.10;23.40;;;;;;;;;;4976483;28;20427;-73
2024/01/20 06:26:20;;;;;;;62.17;22.80;;;;;;;;;;4976147;28;20480;-72
2024/01/20 06:28:46;;;;;;;57.70;22.93;;;;;;;;;;4975210;28;20455;-72
2024/01/20 06:31:21;;;;;;;73.20;22.73;;;;;;;;;;4976406;28;20424;-73
2024/01/20 06:33:47;;;;;;;71.03;23.53;;;;;;;;;;4976494;28;20399;-71
2024/01/20 06:36:13;;;;;;;101.83;25.20;;;;;;;;;;4975968;28;20408;-71
2024/01/20 06:38:39;;;;;;;74.30;26.57;;;;;;;;;;4976118;28;20419;-71
2024/01/20 06:41:05;;;;;;;61.70;25.10;;;;;;;;;;4988808;28;20447;-71
2024/01/20 06:43:31;;;;;;;59.20;22.20;;;;;;;;;;4989030;28;20416;-70
2024/01/20 06:45:57;;;;;;;67.80;24.90;;;;;;;;;;4981226;28;20490;-72
2024/01/20 06:48:24;;;;;;;62.60;25.33;;;;;;;;;;4977716;28;20499;-72
2024/01/20 06:50:50;;;;;;;73.53;24.03;;;;;;;;;;4975478;28;20432;-71
2024/01/20 06:53:16;;;;;;;67.63;24.43;;;;;;;;;;4976164;28;20779;-70
2024/01/20 06:55:42;;;;;;;72.20;26.33;;;;;;;;;;4975467;28;20495;-70
2024/01/20 06:58:09;;;;;;;65.70;24.30;;;;;;;;;;4975718;28;20424;-73
2024/01/20 07:00:35;;;;;;;56.23;21.37;;;;;;;;;;4975703;28;20526;-73
2024/01/20 07:03:01;;;;;;;59.30;24.20;;;;;;;;;;4975439;28;20463;-73
2024/01/20 07:05:27;;;;;;;55.17;20.90;;;;;;;;;;4975559;28;20462;-71
2024/01/20 07:07:53;;;;;;;71.77;24.47;;;;;;;;;;4974078;28;20416;-71
2024/01/20 07:10:19;;;;;;;61.47;24.03;;;;;;;;;;4975667;28;20440;-73
2024/01/20 07:12:45;;;;;;;70.53;23.23;;;;;;;;;;4975405;28;20440;-72
2024/01/20 07:15:11;;;;;;;71.97;25.70;;;;;;;;;;4975649;28;20408;-73
2024/01/20 07:17:37;;;;;;;59.73;22.17;;;;;;;;;;4974643;28;20423;-72
2024/01/20 07:20:03;;;;;;;65.83;22.47;;;;;;;;;;4974412;28;20419;-72
2024/01/20 07:22:31;;;;;;;61.43;22.53;;;;;;;;;;4974047;28;20454;-72
2024/01/20 07:24:57;;;;;;;60.00;23.03;;;;;;;;;;4975344;28;20460;-72
2024/01/20 07:27:23;;;;;;;65.50;24.37;;;;;;;;;;4973580;28;20480;-73
2024/01/20 07:29:49;;;;;;;79.30;27.17;;;;;;;;;;4974080;28;20490;-73
2024/01/20 07:32:15;;;;;;;66.47;24.67;;;;;;;;;;4975085;28;20854;-73
2024/01/20 07:34:41;;;;;;;59.57;25.07;;;;;;;;;;4975361;28;20465;-72
2024/01/20 07:37:07;;;;;;;70.13;26.63;;;;;;;;;;4975518;28;20892;-72
2024/01/20 07:39:33;;;;;;;66.53;25.80;;;;;;;;;;4974837;28;20490;-71
2024/01/20 07:41:59;;;;;;;73.07;26.20;;;;;;;;;;4974709;28;20906;-71
2024/01/20 07:44:25;;;;;;;81.63;26.07;;;;;;;;;;4976097;28;20420;-72
2024/01/20 07:46:51;;;;;;;71.73;25.50;;;;;;;;;;4974675;28;20495;-72
2024/01/20 07:49:17;;;;;;;73.37;26.83;;;;;;;;;;4963386;28;20460;-72
2024/01/20 07:51:43;;;;;;;79.20;28.30;;;;;;;;;;4974526;28;20438;-72
2024/01/20 07:54:12;;;;;;;67.47;26.97;;;;;;;;;;4965004;28;20507;-73
2024/01/20 07:56:37;;;;;;;77.17;26.67;;;;;;;;;;4954915;28;20420;-73
2024/01/20 07:59:04;;;;;;;59.40;24.33;;;;;;;;;;4956110;28;20972;-73
2024/01/20 08:01:30;;;;;;;67.10;24.77;;;;;;;;;;4972996;28;20444;-73
2024/01/20 08:03:57;;;;;;;65.37;24.37;;;;;;;;;;4954975;28;20436;-71
2024/01/20 08:06:23;;;;;;;74.00;25.47;;;;;;;;;;4963963;28;20509;-72
2024/01/20 08:08:49;;;;;;;68.97;24.47;;;;;;;;;;4963794;28;20424;-73
2024/01/20 08:11:15;;;;;;;71.03;24.90;;;;;;;;;;4971817;28;20527;-73
2024/01/20 08:13:41;;;;;;;75.57;26.80;;;;;;;;;;4974307;28;20416;-73
2024/01/20 08:16:07;;;;;;;72.30;25.83;;;;;;;;;;4973483;29;20435;-73
2024/01/20 08:18:33;;;;;;;57.63;21.60;;;;;;;;;;4978074;28;20466;-73
2024/01/20 08:20:59;;;;;;;67.90;24.13;;;;;;;;;;4980347;28;20443;-73
2024/01/20 08:23:25;;;;;;;76.17;25.50;;;;;;;;;;4982018;28;20412;-73
2024/01/20 08:25:51;;;;;;;72.07;25.07;;;;;;;;;;4980834;28;20466;-73
2024/01/20 08:28:17;;;;;;;70.10;24.03;;;;;;;;;;4980515;28;20411;-73
2024/01/20 08:30:43;;;;;;;70.67;24.87;;;;;;;;;;4958104;28;20515;-73
2024/01/20 08:33:09;;;;;;;67.67;25.17;;;;;;;;;;4955704;28;20849;-73
2024/01/20 08:35:35;;;;;;;79.33;26.60;;;;;;;;;;4954780;28;20417;-73
2024/01/20 08:38:01;;;;;;;70.07;26.70;;;;;;;;;;4954034;28;20480;-72
2024/01/20 08:40:27;;;;;;;66.57;24.10;;;;;;;;;;4954497;29;20874;-73
2024/01/20 08:42:53;;;;;;;80.20;27.63;;;;;;;;;;4964868;28;20428;-72
2024/01/20 08:45:19;;;;;;;74.83;27.03;;;;;;;;;;4955577;28;20461;-72
2024/01/20 08:47:44;;;;;;;87.60;28.23;;;;;;;;;;4973390;28;20416;-71
2024/01/20 08:50:11;;;;;;;67.23;24.37;;;;;;;;;;4971662;28;20861;-72
2024/01/20 08:52:36;;;;;;;73.30;26.60;;;;;;;;;;4962137;28;20430;-71
2024/01/20 08:55:03;;;;;;;69.70;23.77;;;;;;;;;;4974719;28;20454;-72
2024/01/20 08:57:31;;;;;;;82.40;27.90;;;;;;;;;;4979973;28;20431;-72
2024/01/20 08:59:57;;;;;;;77.77;27.70;;;;;;;;;;4980675;28;20428;-72
2024/01/20 09:02:23;;;;;;;69.93;25.67;;;;;;;;;;4983046;28;20463;-74
2024/01/20 09:04:49;;;;;;;72.67;26.13;;;;;;;;;;4982738;28;20419;-73
2024/01/20 09:07:15;;;;;;;72.40;27.70;;;;;;;;;;4982666;28;20431;-76
2024/01/20 09:09:41;;;;;;;75.00;26.47;;;;;;;;;;4983044;28;20436;-73
2024/01/20 09:12:07;;;;;;;63.37;27.33;;;;;;;;;;4975681;28;20475;-73
2024/01/20 09:14:34;;;;;;;65.50;27.03;;;;;;;;;;4977783;28;20419;-72
2024/01/20 09:17:00;;;;;;;79.63;27.40;;;;;;;;;;4965528;28;20448;-73
2024/01/20 09:19:26;;;;;;;72.07;26.20;;;;;;;;;;4960714;28;20432;-73
2024/01/20 09:21:52;;;;;;;76.47;26.77;;;;;;;;;;4957305;28;20452;-72
2024/01/20 09:24:18;;;;;;;76.60;24.63;;;;;;;;;;4958427;29;20424;-72
2024/01/20 09:26:44;;;;;;;69.50;27.40;;;;;;;;;;4958704;29;20492;-72
2024/01/20 09:29:10;;;;;;;65.90;26.47;;;;;;;;;;4959933;29;20432;-73
2024/01/20 09:31:35;;;;;;;68.40;25.40;;;;;;;;;;4965910;28;20441;-72
2024/01/20 09:34:02;;;;;;;74.13;28.23;;;;;;;;;;4970132;28;20421;-72
2024/01/20 09:36:28;;;;;;;74.23;26.13;;;;;;;;;;4970056;28;20428;-72
2024/01/20 09:38:54;;;;;;;65.80;24.63;;;;;;;;;;4968163;28;20448;-72
2024/01/20 09:41:20;;;;;;;69.20;26.57;;;;;;;;;;4967506;28;20487;-71
2024/01/20 09:43:47;;;;;;;65.23;24.53;;;;;;;;;;4970684;28;20420;-72
2024/01/20 09:46:13;;;;;;;63.47;24.73;;;;;;;;;;4963191;29;20996;-72
2024/01/20 09:48:39;;;;;;;72.63;26.10;;;;;;;;;;4958403;29;20448;-74
2024/01/20 09:51:05;;;;;;;67.30;24.90;;;;;;;;;;4957590;28;20438;-74
2024/01/20 09:53:31;;;;;;;71.27;26.77;;;;;;;;;;4958234;29;20504;-73
2024/01/20 09:55:57;;;;;;;65.60;25.67;;;;;;;;;;4957596;28;20841;-72
2024/01/20 09:58:23;;;;;;;67.53;26.10;;;;;;;;;;4957913;29;20421;-72
2024/01/20 10:00:50;;;;;;;62.90;25.23;;;;;;;;;;4956234;29;20955;-72
2024/01/20 10:03:20;;;;;;;55.53;22.70;;;;;;;;;;4955770;28;20459;-72
2024/01/20 10:05:46;;;;;;;54.50;22.67;;;;;;;;;;4958398;28;20465;-72
2024/01/20 10:08:12;;;;;;;63.30;23.20;;;;;;;;;;4956254;28;20447;-71
2024/01/20 10:10:39;;;;;;;64.10;25.20;;;;;;;;;;4957725;28;20436;-73
2024/01/20 10:13:05;;;;;;;60.53;23.40;;;;;;;;;;4957981;29;20504;-73
2024/01/20 10:15:31;;;;;;;57.53;21.90;;;;;;;;;;4955534;29;20475;-72
2024/01/20 10:17:58;;;;;;;58.80;23.77;;;;;;;;;;4963595;28;20483;-72
2024/01/20 10:20:25;;;;;;;52.87;22.07;;;;;;;;;;4957100;29;20445;-73
2024/01/20 10:22:51;;;;;;;51.77;22.60;;;;;;;;;;4957102;29;20412;-73
2024/01/20 10:25:21;;;;;;;67.00;25.97;;;;;;;;;;4956892;28;20460;-73
2024/01/20 10:27:47;;;;;;;55.10;23.33;;;;;;;;;;4955543;28;20429;-73
2024/01/20 10:30:15;;;;;;;56.77;23.17;;;;;;;;;;4956848;29;20462;-72
2024/01/20 10:32:41;;;;;;;62.73;25.00;;;;;;;;;;4955535;29;20452;-72
2024/01/20 10:35:10;;;;;;;59.50;23.97;;;;;;;;;;4956856;29;20416;-73
2024/01/20 10:37:44;;;;;;;60.47;24.10;;;;;;;;;;4956668;29;20974;-71
2024/01/20 10:40:14;;;;;;;61.40;23.80;;;;;;;;;;4956735;28;20423;-71
2024/01/20 10:42:47;;;;;;;57.17;24.00;;;;;;;;;;4956775;28;20521;-73
2024/01/20 10:45:17;;;;;;;66.43;26.03;;;;;;;;;;4956688;28;20518;-73
2024/01/20 10:47:58;;;;;;;69.23;25.17;;;;;;;;;;4956498;29;20424;-73
2024/01/20 10:50:25;;;;;;;64.17;25.87;;;;;;;;;;4956519;28;20512;-73
2024/01/20 10:52:52;;;;;;;69.80;28.13;;;;;;;;;;4956599;29;20410;-73
2024/01/20 10:55:18;;;;;;;85.93;28.50;;;;;;;;;;4957153;29;20448;-73
2024/01/20 10:57:45;;;;;;;67.67;25.30;;;;;;;;;;4956493;28;20920;-73
2024/01/20 11:00:11;;;;;;;72.10;26.90;;;;;;;;;;4956945;29;20564;-73
2024/01/20 11:02:37;;;;;;;70.23;29.07;;;;;;;;;;4958615;29;20444;-73
2024/01/20 11:05:03;;;;;;;75.97;28.50;;;;;;;;;;4956248;29;20551;-74
2024/01/20 11:07:30;;;;;;;69.67;24.93;;;;;;;;;;4955294;28;20791;-74
2024/01/20 11:10:00;;;;;;;79.10;28.50;;;;;;;;;;4957343;28;20420;-73
2024/01/20 11:12:27;;;;;;;67.83;25.83;;;;;;;;;;4957298;28;20440;-74
2024/01/20 11:14:55;;;;;;;68.00;26.30;;;;;;;;;;4959303;28;20415;-72
2024/01/20 11:17:21;;;;;;;73.23;26.10;;;;;;;;;;4963340;29;20424;-73
2024/01/20 11:19:47;;;;;;;78.53;28.80;;;;;;;;;;4961788;28;20412;-73
2024/01/20 11:22:32;;;;;;;75.60;27.20;;;;;;;;;;4958445;28;20428;-73
2024/01/20 11:24:58;;;;;;;63.17;26.90;;;;;;;;;;4956537;28;20482;-73
2024/01/20 11:27:24;;;;;;;62.60;25.13;;;;;;;;;;4956409;28;20829;-73
2024/01/20 11:29:50;;;;;;;64.97;25.67;;;;;;;;;;4956879;29;20412;-74
2024/01/20 11:32:17;;;;;;;62.23;25.30;;;;;;;;;;4956457;29;20436;-74
2024/01/20 11:34:43;;;;;;;65.73;25.10;;;;;;;;;;4956629;28;20413;-73
2024/01/20 11:37:09;;;;;;;57.17;25.17;;;;;;;;;;4955923;28;20413;-73
2024/01/20 11:39:35;;;;;;;62.80;24.73;;;;;;;;;;4955974;29;20415;-72
2024/01/20 11:42:04;;;;;;;63.13;25.03;;;;;;;;;;4955846;29;20779;-73
2024/01/20 11:44:32;;;;;;;64.53;25.10;;;;;;;;;;4956057;28;20492;-73
2024/01/20 11:46:59;;;;;;;66.83;26.77;;;;;;;;;;4956471;28;20493;-75
2024/01/20 11:49:25;;;;;;;74.83;27.13;;;;;;;;;;4956389;28;20417;-73
2024/01/20 11:51:51;;;;;;;70.57;26.80;;;;;;;;;;4956218;29;20471;-73
2024/01/20 11:54:17;;;;;;;68.00;25.60;;;;;;;;;;4956301;29;20527;-72
2024/01/20 11:56:43;;;;;;;67.87;27.07;;;;;;;;;;4956314;29;20413;-73
2024/01/20 11:59:09;;;;;;;57.07;24.07;;;;;;;;;;4955678;29;20411;-74
2024/01/20 12:01:36;;;;;;;78.10;29.20;;;;;;;;;;4955143;29;20447;-74
2024/01/20 12:04:02;;;;;;;64.90;26.87;;;;;;;;;;4955391;29;20416;-72
2024/01/20 12:06:28;;;;;;;66.60;25.80;;;;;;;;;;4954759;28;20494;-72
2024/01/20 12:08:56;;;;;;;55.10;23.37;;;;;;;;;;4953805;29;20444;-72
2024/01/20 12:11:23;;;;;;;59.30;23.73;;;;;;;;;;4955284;29;20536;-72
2024/01/20 12:13:49;;;;;;;63.23;24.17;;;;;;;;;;4982799;23;20413;-74
2024/01/20 12:16:16;;;;;;;61.63;24.00;;;;;;;;;;5010698;28;20420;-74
2024/01/20 12:18:42;;;;;;;67.03;25.77;;;;;;;;;;5012041;28;20410;-75
2024/01/20 12:21:09;;;;;;;60.43;24.27;;;;;;;;;;5012306;28;20402;-74
2024/01/20 12:23:38;;;;;;;54.43;23.40;;;;;;;;;;5010119;28;20457;-74
2024/01/20 12:26:13;;;;;;;63.83;26.70;;;;;;;;;;4992455;28;20960;-74
2024/01/20 12:28:41;;;;;;;70.27;26.50;;;;;;;;;;4992656;28;20483;-75
2024/01/20 12:31:07;;;;;;;71.23;24.13;;;;;;;;;;4992352;28;20399;-74
2024/01/20 12:33:33;;;;;;;80.00;25.93;;;;;;;;;;4992690;28;20600;-75
2024/01/20 12:36:01;;;;;;;68.87;27.97;;;;;;;;;;4992759;28;20413;-74
2024/01/20 12:38:27;;;;;;;67.23;24.53;;;;;;;;;;4993107;28;20414;-74
2024/01/20 12:40:53;;;;;;;61.80;26.10;;;;;;;;;;4992275;28;20556;-75
2024/01/20 12:43:19;;;;;;;61.30;24.23;;;;;;;;;;4993387;28;20426;-74
2024/01/20 12:45:45;;;;;;;56.97;23.03;;;;;;;;;;4992871;28;20464;-74
2024/01/20 12:48:14;;;;;;;68.77;26.07;;;;;;;;;;4993469;28;20790;-74
2024/01/20 12:50:40;;;;;;;62.20;24.87;;;;;;;;;;4991572;28;20584;-74
2024/01/20 12:53:06;;;;;;;64.57;24.73;;;;;;;;;;4992550;28;20439;-74
2024/01/20 12:55:32;;;;;;;64.20;24.83;;;;;;;;;;4992685;28;20434;-74
2024/01/20 12:57:59;;;;;;;64.50;24.67;;;;;;;;;;4992791;28;20423;-74
2024/01/20 13:00:25;;;;;;;55.00;22.23;;;;;;;;;;4991125;28;20415;-74
2024/01/20 13:02:51;;;;;;;59.03;23.17;;;;;;;;;;4992384;28;20466;-75
2024/01/20 13:05:17;;;;;;;58.30;23.83;;;;;;;;;;4992157;28;20501;-75
2024/01/20 13:07:43;;;;;;;61.00;24.10;;;;;;;;;;4994286;28;20483;-74
2024/01/20 13:10:09;;;;;;;57.50;23.87;;;;;;;;;;4994998;28;20420;-74
2024/01/20 13:12:35;;;;;;;56.57;23.30;;;;;;;;;;4992743;28;20407;-75
2024/01/20 13:15:00;;;;;;;58.23;23.77;;;;;;;;;;4992126;28;20805;-75
2024/01/20 13:17:30;;;;;;;51.00;21.30;;;;;;;;;;4992470;28;20414;-74
2024/01/20 13:19:56;;;;;;;57.70;23.80;;;;;;;;;;4993810;28;20748;-74
2024/01/20 13:22:22;;;;;;;60.43;22.40;;;;;;;;;;4993615;28;20437;-75
2024/01/20 13:24:47;;;;;;;63.13;22.83;;;;;;;;;;4991660;28;20539;-75
2024/01/20 13:27:13;;;;;;;56.40;23.77;;;;;;;;;;4993129;28;20411;-75
2024/01/20 13:29:39;;;;;;;60.93;23.67;;;;;;;;;;4991994;28;20879;-76
2024/01/20 13:32:06;;;;;;;56.23;23.90;;;;;;;;;;4992120;28;20407;-75
2024/01/20 13:34:33;;;;;;;50.20;21.87;;;;;;;;;;4992066;28;20485;-75
2024/01/20 13:36:59;;;;;;;61.67;24.73;;;;;;;;;;4991925;28;20410;-75
2024/01/20 13:39:25;;;;;;;54.67;22.53;;;;;;;;;;4992230;28;20779;-75
2024/01/20 13:41:51;;;;;;;59.43;22.10;;;;;;;;;;4990891;28;20435;-76
2024/01/20 13:44:17;;;;;;;53.87;22.97;;;;;;;;;;4994932;28;20944;-75
2024/01/20 13:46:43;;;;;;;51.63;21.07;;;;;;;;;;4995404;28;20458;-75
2024/01/20 13:49:09;;;;;;;51.13;22.03;;;;;;;;;;4995738;28;20415;-75
2024/01/20 13:51:35;;;;;;;53.07;21.00;;;;;;;;;;4995626;28;20426;-75
2024/01/20 13:54:01;;;;;;;49.53;21.10;;;;;;;;;;4994126;28;20434;-75
2024/01/20 13:56:27;;;;;;;53.43;22.37;;;;;;;;;;4995294;28;20411;-75
2024/01/20 13:58:53;;;;;;;58.60;22.80;;;;;;;;;;4995663;28;20549;-75
2024/01/20 14:01:22;;;;;;;64.70;22.30;;;;;;;;;;4995425;28;20782;-75
2024/01/20 14:03:49;;;;;;;54.07;21.07;;;;;;;;;;4995103;28;20833;-75
2024/01/20 14:06:15;;;;;;;42.30;19.03;;;;;;;;;;4994986;28;20956;-74
2024/01/20 14:08:41;;;;;;;50.63;19.60;;;;;;;;;;4995301;28;20422;-74
2024/01/20 14:11:07;;;;;;;46.80;20.30;;;;;;;;;;4995289;28;20770;-74
2024/01/20 14:13:33;;;;;;;50.93;19.93;;;;;;;;;;4993847;28;20423;-75
2024/01/20 14:16:00;;;;;;;43.20;18.93;;;;;;;;;;4993660;28;20835;-75
2024/01/20 14:18:25;;;;;;;42.43;19.60;;;;;;;;;;4995310;28;20415;-75
2024/01/20 14:20:51;;;;;;;37.03;15.43;;;;;;;;;;4995210;28;20422;-75
2024/01/20 14:23:22;;;;;;;41.23;16.97;;;;;;;;;;4994903;28;20422;-75
2024/01/20 14:25:48;;;;;;;38.83;16.47;;;;;;;;;;4994721;28;20462;-75
2024/01/20 14:28:14;;;;;;;37.53;16.63;;;;;;;;;;4995136;28;20492;-75
2024/01/20 14:30:40;;;;;;;46.90;18.83;;;;;;;;;;4994888;28;20894;-75
2024/01/20 14:33:06;;;;;;;41.30;17.60;;;;;;;;;;4995153;28;20526;-74
2024/01/20 14:35:32;;;;;;;39.27;17.77;;;;;;;;;;4995074;28;20446;-74
2024/01/20 14:37:58;;;;;;;41.93;18.60;;;;;;;;;;4994534;28;20421;-74
2024/01/20 14:40:24;;;;;;;44.10;17.27;;;;;;;;;;4994901;28;20411;-74
2024/01/20 14:42:50;;;;;;;35.03;15.90;;;;;;;;;;4994911;28;20418;-75
2024/01/20 14:45:16;;;;;;;33.63;15.00;;;;;;;;;;4994747;28;20469;-74
2024/01/20 14:47:42;;;;;;;32.57;14.63;;;;;;;;;;4994864;28;20415;-74
2024/01/20 14:50:08;;;;;;;32.40;15.60;;;;;;;;;;4994987;28;20478;-74
2024/01/20 14:52:34;;;;;;;33.93;14.23;;;;;;;;;;4995059;28;20458;-74
2024/01/20 14:55:00;;;;;;;42.50;16.13;;;;;;;;;;4992327;28;20439;-74
2024/01/20 14:57:26;;;;;;;37.73;15.97;;;;;;;;;;4994873;28;20417;-74
2024/01/20 14:59:52;;;;;;;42.23;15.40;;;;;;;;;;4995332;28;20424;-74
2024/01/20 15:02:19;;;;;;;40.23;15.47;;;;;;;;;;4995446;28;20418;-74
2024/01/20 15:04:45;;;;;;;44.53;15.70;;;;;;;;;;4993063;28;20443;-74
2024/01/20 15:07:11;;;;;;;41.20;15.53;;;;;;;;;;4994217;28;20454;-73
2024/01/20 15:09:37;;;;;;;36.87;15.30;;;;;;;;;;4994919;28;20425;-76
2024/01/20 15:12:03;;;;;;;39.07;16.63;;;;;;;;;;4994933;28;20438;-73
2024/01/20 15:14:29;;;;;;;40.73;16.20;;;;;;;;;;4994461;28;20454;-74
2024/01/20 15:16:55;;;;;;;41.43;15.33;;;;;;;;;;4994513;28;20854;-75
2024/01/20 15:19:21;;;;;;;36.00;17.83;;;;;;;;;;4994379;28;20414;-74
2024/01/20 15:21:47;;;;;;;40.13;16.17;;;;;;;;;;4994211;28;20450;-75
2024/01/20 15:24:13;;;;;;;44.33;15.97;;;;;;;;;;4993949;28;20810;-74
2024/01/20 15:26:39;;;;;;;39.43;16.93;;;;;;;;;;4993881;28;21016;-75
2024/01/20 15:29:05;;;;;;;40.03;16.50;;;;;;;;;;4993930;28;20407;-75
2024/01/20 15:31:31;;;;;;;48.93;18.70;;;;;;;;;;4993812;28;20407;-75
2024/01/20 15:33:59;;;;;;;49.10;17.07;;;;;;;;;;4993776;28;20477;-75
2024/01/20 15:36:25;;;;;;;44.83;19.53;;;;;;;;;;4993687;28;20415;-75
2024/01/20 15:38:51;;;;;;;35.40;16.50;;;;;;;;;;4993707;28;20794;-75
2024/01/20 15:41:17;;;;;;;60.23;20.80;;;;;;;;;;4992699;28;20430;-75
2024/01/20 15:43:43;;;;;;;41.80;18.93;;;;;;;;;;4993510;28;20415;-75
2024/01/20 15:46:09;;;;;;;41.23;16.73;;;;;;;;;;4993194;28;20548;-75
2024/01/20 15:48:36;;;;;;;34.73;16.37;;;;;;;;;;4993693;28;20558;-75
2024/01/20 15:51:02;;;;;;;47.87;17.70;;;;;;;;;;4993420;28;21101;-75
2024/01/20 15:53:28;;;;;;;43.57;16.87;;;;;;;;;;4993149;28;20498;-74
2024/01/20 15:55:54;;;;;;;41.90;17.50;;;;;;;;;;4992845;28;20510;-75
2024/01/20 15:58:20;;;;;;;48.43;19.20;;;;;;;;;;4993758;28;20423;-75
2024/01/20 16:00:46;;;;;;;52.60;20.23;;;;;;;;;;4993176;28;20411;-75
2024/01/20 16:03:12;;;;;;;63.60;21.20;;;;;;;;;;4993171;28;20418;-75
2024/01/20 16:05:38;;;;;;;51.57;20.53;;;;;;;;;;4992352;28;20833;-75
2024/01/20 16:08:04;;;;;;;56.40;19.00;;;;;;;;;;4992928;28;20422;-75
2024/01/20 16:10:29;;;;;;;43.17;18.07;;;;;;;;;;4993015;28;20417;-75
2024/01/20 16:12:56;;;;;;;37.57;17.83;;;;;;;;;;4993037;28;20415;-75
2024/01/20 16:15:21;;;;;;;51.17;21.57;;;;;;;;;;4992857;28;20500;-75
2024/01/20 16:17:47;;;;;;;44.23;18.83;;;;;;;;;;4993144;28;20445;-75
2024/01/20 16:20:13;;;;;;;49.23;19.53;;;;;;;;;;4992772;28;20865;-75
2024/01/20 16:22:39;;;;;;;50.77;20.13;;;;;;;;;;4992755;28;20462;-74
2024/01/20 16:25:05;;;;;;;50.93;19.80;;;;;;;;;;4992766;28;20850;-74
2024/01/20 16:27:31;;;;;;;50.53;19.70;;;;;;;;;;4992812;28;20914;-74
2024/01/20 16:29:57;;;;;;;50.93;18.20;;;;;;;;;;4992630;28;20418;-74
2024/01/20 16:32:23;;;;;;;54.97;20.73;;;;;;;;;;4992628;28;20417;-75
2024/01/20 16:34:49;;;;;;;51.90;20.27;;;;;;;;;;4992536;28;20423;-75
2024/01/20 16:37:15;;;;;;;49.47;19.10;;;;;;;;;;4992457;28;20782;-75
2024/01/20 16:39:41;;;;;;;49.57;19.50;;;;;;;;;;4992718;28;20472;-75
2024/01/20 16:42:07;;;;;;;48.30;20.13;;;;;;;;;;4992762;28;20420;-75
2024/01/20 16:44:33;;;;;;;53.10;20.80;;;;;;;;;;4992633;28;20434;-75
2024/01/20 16:46:59;;;;;;;54.40;21.30;;;;;;;;;;4993444;28;20553;-75
2024/01/20 16:49:25;;;;;;;54.77;23.10;;;;;;;;;;4992593;28;20419;-76
2024/01/20 16:51:51;;;;;;;51.20;20.93;;;;;;;;;;4992521;28;20410;-75
2024/01/20 16:54:17;;;;;;;60.90;21.83;;;;;;;;;;4992576;28;20532;-75
2024/01/20 16:56:43;;;;;;;55.43;22.80;;;;;;;;;;4992375;28;20409;-75
2024/01/20 16:59:09;;;;;;;74.47;25.83;;;;;;;;;;4992599;28;20411;-75
2024/01/20 17:01:35;;;;;;;57.27;22.00;;;;;;;;;;4992453;28;20802;-75
2024/01/20 17:04:01;;;;;;;56.33;23.70;;;;;;;;;;4992713;28;20431;-75
2024/01/20 17:06:28;;;;;;;65.10;24.10;;;;;;;;;;4990981;28;20467;-75
2024/01/20 17:08:54;;;;;;;57.20;23.53;;;;;;;;;;4992426;28;20442;-75
2024/01/20 17:11:20;;;;;;;63.80;23.80;;;;;;;;;;4992480;28;20418;-75
2024/01/20 17:13:48;;;;;;;65.53;25.63;;;;;;;;;;4992137;28;20407;-75
2024/01/20 17:16:15;;;;;;;71.70;24.77;;;;;;;;;;4991999;28;20963;-75
2024/01/20 17:18:41;;;;;;;58.53;21.80;;;;;;;;;;4994385;28;20561;-75
2024/01/20 17:21:14;;;;;;;63.47;26.43;;;;;;;;;;4996304;28;20497;-75
2024/01/20 17:23:40;;;;;;;62.53;23.63;;;;;;;;;;4996160;28;20465;-76
2024/01/20 17:26:06;;;;;;;56.17;22.90;;;;;;;;;;4996011;28;20541;-75
2024/01/20 17:28:33;;;;;;;65.37;24.33;;;;;;;;;;4997240;28;20410;-75
2024/01/20 17:30:59;;;;;;;63.63;24.67;;;;;;;;;;5001298;28;20472;-75
2024/01/20 17:33:25;;;;;;;64.60;27.40;;;;;;;;;;4997035;28;20415;-76
2024/01/20 17:35:52;;;;;;;74.90;26.30;;;;;;;;;;4995868;28;20439;-75
2024/01/20 17:38:19;;;;;;;58.20;25.03;;;;;;;;;;4996004;28;20441;-76
2024/01/20 17:40:45;;;;;;;74.37;27.13;;;;;;;;;;4996089;28;20438;-75
2024/01/20 17:43:11;;;;;;;65.87;26.87;;;;;;;;;;4995889;28;21017;-75
2024/01/20 17:45:37;;;;;;;67.87;25.70;;;;;;;;;;4995662;28;20826;-76
2024/01/20 17:48:03;;;;;;;57.93;25.30;;;;;;;;;;4995833;28;20415;-76
2024/01/20 17:50:29;;;;;;;59.63;25.53;;;;;;;;;;4995878;28;20411;-76
2024/01/20 17:52:55;;;;;;;69.67;27.10;;;;;;;;;;4995742;28;20417;-76
2024/01/20 17:55:21;;;;;;;64.70;27.30;;;;;;;;;;4995893;28;20441;-76
2024/01/20 17:57:49;;;;;;;72.87;27.30;;;;;;;;;;4995601;28;20418;-76
2024/01/20 18:00:17;;;;;;;70.03;26.90;;;;;;;;;;4995726;28;20414;-75
2024/01/20 18:02:45;;;;;;;74.90;28.80;;;;;;;;;;4995573;28;20411;-76
2024/01/20 18:05:12;;;;;;;70.97;27.33;;;;;;;;;;4995711;28;20759;-75
2024/01/20 18:07:38;;;;;;;71.93;24.90;;;;;;;;;;4994239;28;20423;-76
2024/01/20 18:10:04;;;;;;;65.47;25.57;;;;;;;;;;4995507;28;20497;-76
2024/01/20 18:12:30;;;;;;;77.63;28.17;;;;;;;;;;4995468;28;20403;-76
2024/01/20 18:14:56;;;;;;;62.30;25.90;;;;;;;;;;4995388;28;20455;-76
2024/01/20 18:17:22;;;;;;;72.27;28.73;;;;;;;;;;4995178;28;20407;-76
2024/01/20 18:19:48;;;;;;;57.47;23.27;;;;;;;;;;4995294;28;20780;-76
2024/01/20 18:22:14;;;;;;;75.70;25.53;;;;;;;;;;4995546;28;20415;-76
2024/01/20 18:24:40;;;;;;;62.73;24.20;;;;;;;;;;4995402;28;20513;-76
2024/01/20 18:27:06;;;;;;;70.47;27.20;;;;;;;;;;4995486;28;20466;-75
2024/01/20 18:29:32;;;;;;;66.70;25.10;;;;;;;;;;4994725;28;20933;-75
2024/01/20 18:31:59;;;;;;;64.33;23.27;;;;;;;;;;4995456;28;20426;-75
2024/01/20 18:34:24;;;;;;;67.30;26.30;;;;;;;;;;4994946;28;20459;-74
2024/01/20 18:36:51;;;;;;;64.10;25.87;;;;;;;;;;4994698;28;20457;-75
2024/01/20 18:39:17;;;;;;;66.47;27.17;;;;;;;;;;4994971;28;20983;-75
2024/01/20 18:41:43;;;;;;;74.97;28.00;;;;;;;;;;4995095;28;20925;-75
2024/01/20 18:44:09;;;;;;;70.53;27.47;;;;;;;;;;4994835;28;20427;-75
2024/01/20 18:46:35;;;;;;;67.23;27.90;;;;;;;;;;4994686;28;20495;-75
2024/01/20 18:49:01;;;;;;;73.93;27.73;;;;;;;;;;4994932;28;20415;-75
2024/01/20 18:51:26;;;;;;;75.27;27.13;;;;;;;;;;4996160;28;20430;-75
2024/01/20 18:53:54;;;;;;;64.20;26.07;;;;;;;;;;4996822;28;20517;-77
2024/01/20 18:56:20;;;;;;;75.43;27.40;;;;;;;;;;4996302;28;20689;-75
2024/01/20 18:58:45;;;;;;;68.00;24.70;;;;;;;;;;4995223;28;20550;-75
2024/01/20 19:01:11;;;;;;;75.13;26.73;;;;;;;;;;4994618;28;20422;-75
2024/01/20 19:03:37;;;;;;;73.87;27.03;;;;;;;;;;4994386;28;20415;-75
2024/01/20 19:06:03;;;;;;;67.70;25.20;;;;;;;;;;4994130;28;20513;-75
2024/01/20 19:08:29;;;;;;;55.77;24.07;;;;;;;;;;4994419;28;20407;-75
2024/01/20 19:10:55;;;;;;;69.17;24.90;;;;;;;;;;4994340;28;20405;-76
2024/01/20 19:13:21;;;;;;;72.37;28.10;;;;;;;;;;4994145;28;20822;-75
2024/01/20 19:15:48;;;;;;;67.33;28.17;;;;;;;;;;4993907;28;20443;-75
2024/01/20 19:18:14;;;;;;;67.57;26.60;;;;;;;;;;4994153;28;20427;-74
2024/01/20 19:20:40;;;;;;;71.30;27.97;;;;;;;;;;4994293;28;20419;-75
2024/01/20 19:23:07;;;;;;;67.13;27.70;;;;;;;;;;4994169;28;20430;-75
2024/01/20 19:25:32;;;;;;;68.53;25.97;;;;;;;;;;4993809;28;20461;-75
2024/01/20 19:28:00;;;;;;;72.60;26.20;;;;;;;;;;4994186;28;20407;-75
2024/01/20 19:30:26;;;;;;;74.90;28.23;;;;;;;;;;4993998;28;20416;-74
2024/01/20 19:32:52;;;;;;;77.07;28.63;;;;;;;;;;4993970;28;20411;-74
2024/01/20 19:35:19;;;;;;;67.87;27.00;;;;;;;;;;4993753;28;20946;-74
2024/01/20 19:37:45;;;;;;;71.10;26.10;;;;;;;;;;4993606;28;20411;-75
2024/01/20 19:40:15;;;;;;;76.97;28.70;;;;;;;;;;4993174;28;20417;-76
2024/01/20 19:42:40;;;;;;;65.30;27.73;;;;;;;;;;4993558;28;20484;-74
2024/01/20 19:45:06;;;;;;;73.33;28.13;;;;;;;;;;4992452;28;20542;-76
2024/01/20 19:47:34;;;;;;;72.03;28.20;;;;;;;;;;4993663;28;20418;-75
2024/01/20 19:50:00;;;;;;;72.70;28.23;;;;;;;;;;4993765;28;20418;-76
2024/01/20 19:52:27;;;;;;;71.07;25.17;;;;;;;;;;4993809;28;20415;-76
2024/01/20 19:54:53;;;;;;;63.00;25.37;;;;;;;;;;4993485;28;20431;-75
2024/01/20 19:57:19;;;;;;;69.63;28.83;;;;;;;;;;4993437;28;20907;-75
2024/01/20 19:59:45;;;;;;;71.93;26.83;;;;;;;;;;4993680;28;20422;-75
2024/01/20 20:02:11;;;;;;;70.00;26.00;;;;;;;;;;4993430;28;20796;-75
2024/01/20 20:04:39;;;;;;;65.33;26.20;;;;;;;;;;4993700;28;20923;-75
2024/01/20 20:07:08;;;;;;;76.20;26.50;;;;;;;;;;4993442;28;20833;-74
2024/01/20 20:09:35;;;;;;;65.87;26.20;;;;;;;;;;4995344;28;20411;-74
2024/01/20 20:12:01;;;;;;;69.53;26.10;;;;;;;;;;4993762;28;20419;-75